Terminal Aerodrome Forecast
Issued by NWS Goodland, KS

Home | Current Version | Previous Version | Text Only | Print | Product List | Glossary On
Versions: 1 2 3 4 5 6 7 8 9 10 11 12
754
FTUS43 KGLD 231720
TAFGLD
TAF
KGLD 231720Z 2318/2418 18023G32KT P6SM SCT250
     FM240300 16017G21KT P6SM FEW200 WS020/18050KT
     FM241100 22010KT P6SM SCT200 WS020/25040KT
     FM241400 32014G23KT P6SM FEW250=

USA.gov is the U.S. government's official web portal to all federal, state and local government web resources and services.